N510MV K60J-KEQY
Flight info
| Callsign | N510MV |
|---|---|
| Flight time | N/A |
| Altitude | 20000 |
| Route | HICKE RASLN |
| Aircraft | C510/L-SDFGRWY/LB1 |
Departure
| Time | 2026-04-13 23:07 |
|---|---|
| Airport | Odell Williamson Municipal Airport (K60J) |
Arrival
| Time | N/A |
|---|---|
| Airport | Charlotte-Monroe Executive Airport (KEQY) |
| Time | Latitude | Longitude | Altitude | Speed | Heading |
|---|---|---|---|---|---|
| 2026-04-13 22:58 | 33.90583 | -78.43924 | 31 ft | 0 kts | 145° |
| 2026-04-13 23:04 | 33.90580 | -78.43920 | 31 ft | 3 kts | 129° |
| 2026-04-13 23:04 | 33.90593 | -78.43899 | 31 ft | 8 kts | 359° |
| 2026-04-13 23:04 | 33.90618 | -78.43912 | 31 ft | 2 kts | 315° |
| 2026-04-13 23:04 | 33.90620 | -78.43919 | 31 ft | 1 kts | 242° |
| 2026-04-13 23:05 | 33.90581 | -78.43984 | 31 ft | 5 kts | 235° |
| 2026-04-13 23:05 | 33.90576 | -78.43997 | 31 ft | 3 kts | 271° |
| 2026-04-13 23:05 | 33.90576 | -78.43998 | 31 ft | 0 kts | 291° |
| 2026-04-13 23:06 | 33.90585 | -78.44015 | 31 ft | 0 kts | 320° |
| 2026-04-13 23:06 | 33.90586 | -78.44016 | 31 ft | 0 kts | 320° |
| 2026-04-13 23:06 | 33.90624 | -78.44000 | 31 ft | 11 kts | 59° |
| 2026-04-13 23:07 | 33.90638 | -78.43973 | 31 ft | 26 kts | 57° |
| 2026-04-13 23:07 | 33.90935 | -78.43470 | 30 ft | 109 kts | 56° |
| 2026-04-13 23:07 | 33.91445 | -78.42582 | 309 ft | 139 kts | 57° |
| 2026-04-13 23:07 | 33.92157 | -78.41491 | 759 ft | 182 kts | 43° |
| 2026-04-13 23:08 | 33.93351 | -78.40692 | 1701 ft | 197 kts | 15° |
| 2026-04-13 23:08 | 33.94731 | -78.40525 | 2747 ft | 195 kts | 353° |
| 2026-04-13 23:08 | 33.95979 | -78.40942 | 3771 ft | 184 kts | 333° |
| 2026-04-13 23:08 | 33.97088 | -78.41779 | 4610 ft | 183 kts | 315° |
| 2026-04-13 23:09 | 33.97832 | -78.43040 | 5439 ft | 182 kts | 295° |
| 2026-04-13 23:09 | 33.98118 | -78.44530 | 6299 ft | 179 kts | 269° |
| 2026-04-13 23:09 | 33.97766 | -78.45988 | 7085 ft | 181 kts | 241° |
| 2026-04-13 23:09 | 33.97266 | -78.47356 | 7781 ft | 181 kts | 266° |
| 2026-04-13 23:10 | 33.97377 | -78.48923 | 8500 ft | 183 kts | 283° |
| 2026-04-13 23:10 | 33.97831 | -78.50417 | 9196 ft | 186 kts | 293° |
| 2026-04-13 23:10 | 33.98447 | -78.51877 | 9874 ft | 189 kts | 297° |
| 2026-04-13 23:10 | 33.99115 | -78.53284 | 10556 ft | 190 kts | 298° |
| 2026-04-13 23:11 | 33.99815 | -78.54702 | 11230 ft | 191 kts | 300° |
| 2026-04-13 23:11 | 34.00525 | -78.56117 | 11886 ft | 191 kts | 300° |
| 2026-04-13 23:11 | 34.01254 | -78.57564 | 12518 ft | 193 kts | 300° |
| 2026-04-13 23:11 | 34.01983 | -78.59003 | 13137 ft | 194 kts | 299° |
| 2026-04-13 23:12 | 34.02709 | -78.60445 | 13726 ft | 195 kts | 299° |
| 2026-04-13 23:12 | 34.03437 | -78.61883 | 14303 ft | 196 kts | 299° |
| 2026-04-13 23:12 | 34.04169 | -78.63335 | 14848 ft | 197 kts | 299° |
| 2026-04-13 23:12 | 34.04905 | -78.64795 | 15389 ft | 199 kts | 299° |
| 2026-04-13 23:13 | 34.05646 | -78.66267 | 15920 ft | 200 kts | 298° |
| 2026-04-13 23:13 | 34.06390 | -78.67741 | 16400 ft | 204 kts | 298° |
| 2026-04-13 23:13 | 34.07185 | -78.69325 | 16484 ft | 226 kts | 298° |
| 2026-04-13 23:13 | 34.08033 | -78.71011 | 16485 ft | 239 kts | 298° |
| 2026-04-13 23:14 | 34.08940 | -78.72808 | 16501 ft | 251 kts | 299° |
| 2026-04-13 23:14 | 34.09912 | -78.74743 | 16495 ft | 261 kts | 299° |
| 2026-04-13 23:14 | 34.10899 | -78.76702 | 16476 ft | 269 kts | 299° |
| 2026-04-13 23:14 | 34.11911 | -78.78715 | 16491 ft | 274 kts | 299° |
| 2026-04-13 23:15 | 34.12940 | -78.80764 | 16487 ft | 278 kts | 299° |
| 2026-04-13 23:15 | 34.13988 | -78.82856 | 16489 ft | 282 kts | 299° |